Boston, United Kingdom
Current Conditions -  °F | °C
As of 6:50 AM on Friday 31 Oct 2014 (Local Time) from EGXC Reporting Station
Haze Haze  
Wind Chill: 55°   Ceiling: 400
Heat Index: 55°   Visibility: 1.8mi
Dew Point: 55°   Wind: 10mph
Humidity: 100%   Direction: 180°S
Pressure: 29.97"   Gusts: NA
Location:  52.98°N, 0°W
Report Text: EGXC 310650Z 18009KT 3000 BR BKN004 13/13 Q1015 YLO2 BECMG 4000 BR BKN005 YL01
Loading
Personal Weather Stations






























Interactive Weather Map
Tropical Storm Tracking
New forecast layout! Learn more

10-Day Weather Forecast

Advertisements
Track Severe Weather on mobile